sensor_id;sensor_type;location;lat;lon;timestamp;P1;durP1;ratioP1;P2;durP2;ratioP2
3571;SDS011;7958;53.024;12.970;2022-08-19T00:00:28;10.30;;;9.40;;
3571;SDS011;7958;53.024;12.970;2022-08-19T00:02:54;9.83;;;9.00;;
3571;SDS011;7958;53.024;12.970;2022-08-19T00:05:21;11.50;;;9.70;;
3571;SDS011;7958;53.024;12.970;2022-08-19T00:07:48;10.50;;;9.50;;
3571;SDS011;7958;53.024;12.970;2022-08-19T00:10:16;10.50;;;9.50;;
3571;SDS011;7958;53.024;12.970;2022-08-19T00:12:43;10.23;;;9.13;;
3571;SDS011;7958;53.024;12.970;2022-08-19T00:15:11;10.70;;;9.60;;
3571;SDS011;7958;53.024;12.970;2022-08-19T00:17:40;10.97;;;9.93;;
3571;SDS011;7958;53.024;12.970;2022-08-19T00:20:09;11.07;;;9.97;;
3571;SDS011;7958;53.024;12.970;2022-08-19T00:22:37;12.53;;;10.20;;
3571;SDS011;7958;53.024;12.970;2022-08-19T00:25:03;11.30;;;10.03;;
3571;SDS011;7958;53.024;12.970;2022-08-19T00:27:31;11.77;;;10.67;;
3571;SDS011;7958;53.024;12.970;2022-08-19T00:29:57;11.47;;;10.40;;
3571;SDS011;7958;53.024;12.970;2022-08-19T00:32:24;11.60;;;10.50;;
3571;SDS011;7958;53.024;12.970;2022-08-19T00:34:52;12.80;;;10.40;;
3571;SDS011;7958;53.024;12.970;2022-08-19T00:37:18;11.60;;;10.40;;
3571;SDS011;7958;53.024;12.970;2022-08-19T00:39:45;11.20;;;10.20;;
3571;SDS011;7958;53.024;12.970;2022-08-19T00:42:11;10.97;;;9.87;;
3571;SDS011;7958;53.024;12.970;2022-08-19T00:44:40;10.90;;;9.90;;
3571;SDS011;7958;53.024;12.970;2022-08-19T00:47:07;10.60;;;9.70;;
3571;SDS011;7958;53.024;12.970;2022-08-19T00:49:36;10.80;;;9.80;;
3571;SDS011;7958;53.024;12.970;2022-08-19T00:52:08;11.53;;;10.33;;
3571;SDS011;7958;53.024;12.970;2022-08-19T00:54:39;11.07;;;9.97;;
3571;SDS011;7958;53.024;12.970;2022-08-19T00:57:08;10.80;;;9.90;;
3571;SDS011;7958;53.024;12.970;2022-08-19T00:59:37;11.77;;;10.57;;
3571;SDS011;7958;53.024;12.970;2022-08-19T01:02:05;11.07;;;10.17;;
3571;SDS011;7958;53.024;12.970;2022-08-19T01:04:31;10.90;;;9.90;;
3571;SDS011;7958;53.024;12.970;2022-08-19T01:06:58;11.70;;;10.50;;
3571;SDS011;7958;53.024;12.970;2022-08-19T01:09:26;13.80;;;12.40;;
3571;SDS011;7958;53.024;12.970;2022-08-19T01:11:52;11.77;;;10.67;;
3571;SDS011;7958;53.024;12.970;2022-08-19T01:14:19;10.23;;;9.33;;
3571;SDS011;7958;53.024;12.970;2022-08-19T01:16:45;11.87;;;10.67;;
3571;SDS011;7958;53.024;12.970;2022-08-19T01:19:14;12.40;;;11.10;;
3571;SDS011;7958;53.024;12.970;2022-08-19T01:21:44;11.53;;;10.43;;
3571;SDS011;7958;53.024;12.970;2022-08-19T01:24:15;11.17;;;10.10;;
3571;SDS011;7958;53.024;12.970;2022-08-19T01:26:43;12.20;;;11.10;;
3571;SDS011;7958;53.024;12.970;2022-08-19T01:29:10;12.50;;;11.30;;
3571;SDS011;7958;53.024;12.970;2022-08-19T01:31:36;11.57;;;10.30;;
3571;SDS011;7958;53.024;12.970;2022-08-19T01:34:04;12.30;;;11.20;;
3571;SDS011;7958;53.024;12.970;2022-08-19T01:36:31;13.13;;;11.07;;
3571;SDS011;7958;53.024;12.970;2022-08-19T01:38:59;11.73;;;10.67;;
3571;SDS011;7958;53.024;12.970;2022-08-19T01:41:27;12.70;;;11.40;;
3571;SDS011;7958;53.024;12.970;2022-08-19T01:43:54;12.87;;;11.77;;
3571;SDS011;7958;53.024;12.970;2022-08-19T01:46:21;13.20;;;11.90;;
3571;SDS011;7958;53.024;12.970;2022-08-19T01:48:47;13.63;;;11.70;;
3571;SDS011;7958;53.024;12.970;2022-08-19T01:51:14;13.10;;;11.80;;
3571;SDS011;7958;53.024;12.970;2022-08-19T01:53:40;13.00;;;11.90;;
3571;SDS011;7958;53.024;12.970;2022-08-19T01:56:07;13.70;;;12.40;;
3571;SDS011;7958;53.024;12.970;2022-08-19T01:58:36;14.70;;;13.30;;
3571;SDS011;7958;53.024;12.970;2022-08-19T02:01:06;14.67;;;13.20;;
3571;SDS011;7958;53.024;12.970;2022-08-19T02:03:33;14.30;;;12.90;;
3571;SDS011;7958;53.024;12.970;2022-08-19T02:06:00;16.87;;;13.90;;
3571;SDS011;7958;53.024;12.970;2022-08-19T02:08:28;13.50;;;12.10;;
3571;SDS011;7958;53.024;12.970;2022-08-19T02:10:55;12.63;;;11.43;;
3571;SDS011;7958;53.024;12.970;2022-08-19T02:13:22;13.00;;;11.90;;
3571;SDS011;7958;53.024;12.970;2022-08-19T02:15:50;14.47;;;12.97;;
3571;SDS011;7958;53.024;12.970;2022-08-19T02:18:17;14.20;;;12.90;;
3571;SDS011;7958;53.024;12.970;2022-08-19T02:20:43;15.20;;;13.67;;
3571;SDS011;7958;53.024;12.970;2022-08-19T02:23:12;16.70;;;13.33;;
3571;SDS011;7958;53.024;12.970;2022-08-19T02:25:39;16.23;;;14.53;;
3571;SDS011;7958;53.024;12.970;2022-08-19T02:28:05;14.17;;;12.87;;
3571;SDS011;7958;53.024;12.970;2022-08-19T02:30:32;15.27;;;12.17;;
3571;SDS011;7958;53.024;12.970;2022-08-19T02:33:00;14.50;;;13.07;;
3571;SDS011;7958;53.024;12.970;2022-08-19T02:35:26;13.47;;;12.27;;
3571;SDS011;7958;53.024;12.970;2022-08-19T02:37:53;15.90;;;13.53;;
3571;SDS011;7958;53.024;12.970;2022-08-19T02:40:37;15.30;;;13.80;;
3571;SDS011;7958;53.024;12.970;2022-08-19T02:43:04;15.17;;;13.60;;
3571;SDS011;7958;53.024;12.970;2022-08-19T02:45:32;17.70;;;14.60;;
3571;SDS011;7958;53.024;12.970;2022-08-19T02:48:02;24.07;;;14.90;;
3571;SDS011;7958;53.024;12.970;2022-08-19T02:50:29;17.83;;;14.20;;
3571;SDS011;7958;53.024;12.970;2022-08-19T02:52:56;18.13;;;16.17;;
3571;SDS011;7958;53.024;12.970;2022-08-19T02:55:22;17.83;;;15.97;;
3571;SDS011;7958;53.024;12.970;2022-08-19T02:57:49;17.70;;;15.87;;
3571;SDS011;7958;53.024;12.970;2022-08-19T03:00:15;18.33;;;16.43;;
3571;SDS011;7958;53.024;12.970;2022-08-19T03:02:43;18.23;;;16.40;;
3571;SDS011;7958;53.024;12.970;2022-08-19T03:05:11;18.50;;;16.60;;
3571;SDS011;7958;53.024;12.970;2022-08-19T03:07:37;18.83;;;16.43;;
3571;SDS011;7958;53.024;12.970;2022-08-19T03:10:04;20.43;;;18.17;;
3571;SDS011;7958;53.024;12.970;2022-08-19T03:12:34;17.90;;;16.13;;
3571;SDS011;7958;53.024;12.970;2022-08-19T03:15:02;19.97;;;17.93;;
3571;SDS011;7958;53.024;12.970;2022-08-19T03:17:29;21.13;;;18.17;;
3571;SDS011;7958;53.024;12.970;2022-08-19T03:19:55;29.53;;;19.10;;
3571;SDS011;7958;53.024;12.970;2022-08-19T03:22:23;24.93;;;20.07;;
3571;SDS011;7958;53.024;12.970;2022-08-19T03:24:50;22.53;;;20.23;;
3571;SDS011;7958;53.024;12.970;2022-08-19T03:27:16;29.30;;;21.83;;
3571;SDS011;7958;53.024;12.970;2022-08-19T03:29:43;25.00;;;22.37;;
3571;SDS011;7958;53.024;12.970;2022-08-19T03:32:09;24.77;;;21.03;;
3571;SDS011;7958;53.024;12.970;2022-08-19T03:34:37;27.83;;;23.03;;
3571;SDS011;7958;53.024;12.970;2022-08-19T03:37:05;31.30;;;24.27;;
3571;SDS011;7958;53.024;12.970;2022-08-19T03:39:35;27.00;;;23.87;;
3571;SDS011;7958;53.024;12.970;2022-08-19T03:42:02;26.00;;;23.20;;
3571;SDS011;7958;53.024;12.970;2022-08-19T03:44:29;28.47;;;24.60;;
3571;SDS011;7958;53.024;12.970;2022-08-19T03:46:58;31.37;;;23.93;;
3571;SDS011;7958;53.024;12.970;2022-08-19T03:49:26;25.73;;;22.87;;
3571;SDS011;7958;53.024;12.970;2022-08-19T03:51:53;26.00;;;23.20;;
3571;SDS011;7958;53.024;12.970;2022-08-19T03:54:21;25.67;;;21.93;;
3571;SDS011;7958;53.024;12.970;2022-08-19T03:56:51;26.00;;;22.20;;
3571;SDS011;7958;53.024;12.970;2022-08-19T03:59:20;23.00;;;20.50;;
3571;SDS011;7958;53.024;12.970;2022-08-19T04:01:50;23.27;;;20.77;;
3571;SDS011;7958;53.024;12.970;2022-08-19T04:04:17;21.17;;;18.87;;
3571;SDS011;7958;53.024;12.970;2022-08-19T04:06:44;28.73;;;20.73;;
3571;SDS011;7958;53.024;12.970;2022-08-19T04:09:12;21.27;;;19.17;;
3571;SDS011;7958;53.024;12.970;2022-08-19T04:11:39;21.30;;;19.10;;
3571;SDS011;7958;53.024;12.970;2022-08-19T04:14:09;28.03;;;20.83;;
3571;SDS011;7958;53.024;12.970;2022-08-19T04:16:37;21.53;;;19.20;;
3571;SDS011;7958;53.024;12.970;2022-08-19T04:19:03;22.67;;;19.50;;
3571;SDS011;7958;53.024;12.970;2022-08-19T04:21:31;24.07;;;21.17;;
3571;SDS011;7958;53.024;12.970;2022-08-19T04:23:57;26.50;;;22.97;;
3571;SDS011;7958;53.024;12.970;2022-08-19T04:26:24;24.20;;;20.30;;
3571;SDS011;7958;53.024;12.970;2022-08-19T04:28:53;23.13;;;20.67;;
3571;SDS011;7958;53.024;12.970;2022-08-19T04:31:22;23.77;;;20.57;;
3571;SDS011;7958;53.024;12.970;2022-08-19T04:33:51;22.00;;;19.80;;
3571;SDS011;7958;53.024;12.970;2022-08-19T04:36:18;26.00;;;21.00;;
3571;SDS011;7958;53.024;12.970;2022-08-19T04:38:45;22.73;;;20.30;;
3571;SDS011;7958;53.024;12.970;2022-08-19T04:41:12;24.93;;;20.47;;
3571;SDS011;7958;53.024;12.970;2022-08-19T04:43:56;25.63;;;21.40;;
3571;SDS011;7958;53.024;12.970;2022-08-19T04:46:23;23.60;;;19.63;;
3571;SDS011;7958;53.024;12.970;2022-08-19T04:48:50;23.63;;;19.97;;
3571;SDS011;7958;53.024;12.970;2022-08-19T04:51:17;22.00;;;19.80;;
3571;SDS011;7958;53.024;12.970;2022-08-19T04:53:45;22.43;;;20.00;;
3571;SDS011;7958;53.024;12.970;2022-08-19T04:56:14;21.57;;;18.67;;
3571;SDS011;7958;53.024;12.970;2022-08-19T04:58:42;22.03;;;19.67;;
3571;SDS011;7958;53.024;12.970;2022-08-19T05:01:11;24.17;;;19.77;;
3571;SDS011;7958;53.024;12.970;2022-08-19T05:03:39;24.67;;;20.67;;
3571;SDS011;7958;53.024;12.970;2022-08-19T05:06:06;26.33;;;20.17;;
3571;SDS011;7958;53.024;12.970;2022-08-19T05:08:35;21.03;;;18.93;;
3571;SDS011;7958;53.024;12.970;2022-08-19T05:11:07;27.27;;;18.83;;
3571;SDS011;7958;53.024;12.970;2022-08-19T05:13:36;20.20;;;17.60;;
3571;SDS011;7958;53.024;12.970;2022-08-19T05:16:02;20.17;;;18.10;;
3571;SDS011;7958;53.024;12.970;2022-08-19T05:18:29;20.13;;;18.03;;
3571;SDS011;7958;53.024;12.970;2022-08-19T05:21:16;21.40;;;19.27;;
3571;SDS011;7958;53.024;12.970;2022-08-19T05:24:01;21.77;;;19.53;;
3571;SDS011;7958;53.024;12.970;2022-08-19T05:26:28;22.00;;;17.77;;
3571;SDS011;7958;53.024;12.970;2022-08-19T05:28:54;20.23;;;18.03;;
3571;SDS011;7958;53.024;12.970;2022-08-19T05:31:21;21.67;;;19.37;;
3571;SDS011;7958;53.024;12.970;2022-08-19T05:33:47;20.20;;;18.10;;
3571;SDS011;7958;53.024;12.970;2022-08-19T05:36:16;22.13;;;19.93;;
3571;SDS011;7958;53.024;12.970;2022-08-19T05:38:43;20.80;;;18.70;;
3571;SDS011;7958;53.024;12.970;2022-08-19T05:41:11;23.77;;;18.03;;
3571;SDS011;7958;53.024;12.970;2022-08-19T05:43:38;20.10;;;18.10;;
3571;SDS011;7958;53.024;12.970;2022-08-19T05:46:05;21.80;;;19.50;;
3571;SDS011;7958;53.024;12.970;2022-08-19T05:48:31;21.80;;;19.50;;
3571;SDS011;7958;53.024;12.970;2022-08-19T05:51:02;22.57;;;20.27;;
3571;SDS011;7958;53.024;12.970;2022-08-19T05:53:32;21.47;;;19.20;;
3571;SDS011;7958;53.024;12.970;2022-08-19T05:56:02;20.93;;;18.73;;
3571;SDS011;7958;53.024;12.970;2022-08-19T05:58:30;21.37;;;19.07;;
3571;SDS011;7958;53.024;12.970;2022-08-19T06:00:57;22.07;;;19.63;;
3571;SDS011;7958;53.024;12.970;2022-08-19T06:03:29;24.40;;;20.40;;
3571;SDS011;7958;53.024;12.970;2022-08-19T06:05:55;20.80;;;18.67;;
3571;SDS011;7958;53.024;12.970;2022-08-19T06:08:24;22.23;;;19.83;;
3571;SDS011;7958;53.024;12.970;2022-08-19T06:10:51;22.70;;;20.40;;
3571;SDS011;7958;53.024;12.970;2022-08-19T06:13:18;22.83;;;20.53;;
3571;SDS011;7958;53.024;12.970;2022-08-19T06:15:44;25.73;;;21.63;;
3571;SDS011;7958;53.024;12.970;2022-08-19T06:18:11;23.27;;;18.97;;
3571;SDS011;7958;53.024;12.970;2022-08-19T06:20:37;22.07;;;19.87;;
3571;SDS011;7958;53.024;12.970;2022-08-19T06:23:04;21.27;;;19.17;;
3571;SDS011;7958;53.024;12.970;2022-08-19T06:25:30;21.37;;;19.07;;
3571;SDS011;7958;53.024;12.970;2022-08-19T06:27:58;22.90;;;20.20;;
3571;SDS011;7958;53.024;12.970;2022-08-19T06:30:24;22.87;;;20.50;;
3571;SDS011;7958;53.024;12.970;2022-08-19T06:32:51;22.20;;;20.00;;
3571;SDS011;7958;53.024;12.970;2022-08-19T06:35:17;23.27;;;20.87;;
3571;SDS011;7958;53.024;12.970;2022-08-19T06:37:44;22.57;;;20.37;;
3571;SDS011;7958;53.024;12.970;2022-08-19T06:40:10;24.00;;;21.20;;
3571;SDS011;7958;53.024;12.970;2022-08-19T06:42:37;24.20;;;20.30;;
3571;SDS011;7958;53.024;12.970;2022-08-19T06:45:06;24.40;;;21.57;;
3571;SDS011;7958;53.024;12.970;2022-08-19T06:47:33;21.47;;;19.17;;
3571;SDS011;7958;53.024;12.970;2022-08-19T06:50:00;20.10;;;17.93;;
3571;SDS011;7958;53.024;12.970;2022-08-19T06:52:28;22.00;;;19.23;;
3571;SDS011;7958;53.024;12.970;2022-08-19T06:54:54;24.17;;;21.63;;
3571;SDS011;7958;53.024;12.970;2022-08-19T06:57:22;21.57;;;19.37;;
3571;SDS011;7958;53.024;12.970;2022-08-19T06:59:49;21.00;;;18.80;;
3571;SDS011;7958;53.024;12.970;2022-08-19T07:02:17;20.03;;;18.00;;
3571;SDS011;7958;53.024;12.970;2022-08-19T07:04:45;21.10;;;18.23;;
3571;SDS011;7958;53.024;12.970;2022-08-19T07:07:12;21.20;;;19.10;;
3571;SDS011;7958;53.024;12.970;2022-08-19T07:09:40;20.73;;;18.60;;
3571;SDS011;7958;53.024;12.970;2022-08-19T07:12:09;19.27;;;17.27;;
3571;SDS011;7958;53.024;12.970;2022-08-19T07:14:36;18.63;;;16.70;;
3571;SDS011;7958;53.024;12.970;2022-08-19T07:17:04;21.27;;;18.20;;
3571;SDS011;7958;53.024;12.970;2022-08-19T07:19:33;20.27;;;18.13;;
3571;SDS011;7958;53.024;12.970;2022-08-19T07:22:01;24.67;;;17.70;;
3571;SDS011;7958;53.024;12.970;2022-08-19T07:24:29;19.03;;;17.10;;
3571;SDS011;7958;53.024;12.970;2022-08-19T07:26:56;20.43;;;18.30;;
3571;SDS011;7958;53.024;12.970;2022-08-19T07:29:27;17.80;;;16.10;;
3571;SDS011;7958;53.024;12.970;2022-08-19T07:31:54;18.00;;;16.30;;
3571;SDS011;7958;53.024;12.970;2022-08-19T07:34:24;18.03;;;16.17;;
3571;SDS011;7958;53.024;12.970;2022-08-19T07:36:52;18.20;;;16.40;;
3571;SDS011;7958;53.024;12.970;2022-08-19T07:39:19;19.30;;;17.20;;
3571;SDS011;7958;53.024;12.970;2022-08-19T07:41:47;18.20;;;16.43;;
3571;SDS011;7958;53.024;12.970;2022-08-19T07:44:14;17.93;;;16.13;;
3571;SDS011;7958;53.024;12.970;2022-08-19T07:46:42;16.13;;;14.63;;
3571;SDS011;7958;53.024;12.970;2022-08-19T07:49:17;16.23;;;14.70;;
3571;SDS011;7958;53.024;12.970;2022-08-19T07:51:44;15.23;;;13.73;;
3571;SDS011;7958;53.024;12.970;2022-08-19T07:54:12;17.10;;;15.27;;
3571;SDS011;7958;53.024;12.970;2022-08-19T07:56:39;15.17;;;13.67;;
3571;SDS011;7958;53.024;12.970;2022-08-19T07:59:05;13.33;;;12.03;;
3571;SDS011;7958;53.024;12.970;2022-08-19T08:01:32;14.30;;;12.90;;
3571;SDS011;7958;53.024;12.970;2022-08-19T08:04:01;13.27;;;11.97;;
3571;SDS011;7958;53.024;12.970;2022-08-19T08:06:46;11.93;;;10.93;;
3571;SDS011;7958;53.024;12.970;2022-08-19T08:09:32;11.93;;;10.83;;
3571;SDS011;7958;53.024;12.970;2022-08-19T08:12:02;11.50;;;10.13;;
3571;SDS011;7958;53.024;12.970;2022-08-19T08:14:32;13.63;;;12.40;;
3571;SDS011;7958;53.024;12.970;2022-08-19T08:17:01;14.10;;;12.73;;
3571;SDS011;7958;53.024;12.970;2022-08-19T08:19:28;13.43;;;12.03;;
3571;SDS011;7958;53.024;12.970;2022-08-19T08:21:56;12.90;;;11.70;;
3571;SDS011;7958;53.024;12.970;2022-08-19T08:24:24;12.60;;;11.40;;
3571;SDS011;7958;53.024;12.970;2022-08-19T08:26:53;13.30;;;12.10;;
3571;SDS011;7958;53.024;12.970;2022-08-19T08:29:19;12.93;;;11.67;;
3571;SDS011;7958;53.024;12.970;2022-08-19T08:31:46;12.87;;;11.70;;
3571;SDS011;7958;53.024;12.970;2022-08-19T08:34:13;12.03;;;10.77;;
3571;SDS011;7958;53.024;12.970;2022-08-19T08:36:40;12.43;;;11.27;;
3571;SDS011;7958;53.024;12.970;2022-08-19T08:39:10;12.40;;;11.30;;
3571;SDS011;7958;53.024;12.970;2022-08-19T08:41:39;11.40;;;10.40;;
3571;SDS011;7958;53.024;12.970;2022-08-19T08:44:14;12.90;;;11.70;;
3571;SDS011;7958;53.024;12.970;2022-08-19T08:46:44;13.20;;;11.97;;
3571;SDS011;7958;53.024;12.970;2022-08-19T08:49:16;13.10;;;11.90;;
3571;SDS011;7958;53.024;12.970;2022-08-19T08:51:49;14.40;;;13.20;;
3571;SDS011;7958;53.024;12.970;2022-08-19T08:54:19;13.17;;;11.97;;
3571;SDS011;7958;53.024;12.970;2022-08-19T08:56:47;15.00;;;12.80;;
3571;SDS011;7958;53.024;12.970;2022-08-19T08:59:19;13.60;;;12.40;;
3571;SDS011;7958;53.024;12.970;2022-08-19T09:01:47;14.17;;;12.80;;
3571;SDS011;7958;53.024;12.970;2022-08-19T09:04:13;14.20;;;12.90;;
3571;SDS011;7958;53.024;12.970;2022-08-19T09:06:40;14.73;;;13.37;;
3571;SDS011;7958;53.024;12.970;2022-08-19T09:09:12;14.33;;;12.83;;
3571;SDS011;7958;53.024;12.970;2022-08-19T09:11:47;14.90;;;13.43;;
3571;SDS011;7958;53.024;12.970;2022-08-19T09:14:28;15.53;;;13.93;;
3571;SDS011;7958;53.024;12.970;2022-08-19T09:16:59;15.57;;;14.00;;
3571;SDS011;7958;53.024;12.970;2022-08-19T09:19:25;15.87;;;14.37;;
3571;SDS011;7958;53.024;12.970;2022-08-19T09:21:52;16.00;;;13.80;;
3571;SDS011;7958;53.024;12.970;2022-08-19T09:24:18;15.37;;;13.87;;
3571;SDS011;7958;53.024;12.970;2022-08-19T09:26:45;16.03;;;14.53;;
3571;SDS011;7958;53.024;12.970;2022-08-19T09:29:11;15.53;;;13.90;;
3571;SDS011;7958;53.024;12.970;2022-08-19T09:31:39;16.80;;;15.20;;
3571;SDS011;7958;53.024;12.970;2022-08-19T09:34:05;18.63;;;15.97;;
3571;SDS011;7958;53.024;12.970;2022-08-19T09:36:33;16.43;;;14.83;;
3571;SDS011;7958;53.024;12.970;2022-08-19T09:39:01;18.30;;;16.10;;
3571;SDS011;7958;53.024;12.970;2022-08-19T09:41:27;17.70;;;15.90;;
3571;SDS011;7958;53.024;12.970;2022-08-19T09:43:54;18.50;;;16.17;;
3571;SDS011;7958;53.024;12.970;2022-08-19T09:46:22;16.97;;;15.37;;
3571;SDS011;7958;53.024;12.970;2022-08-19T09:48:51;16.17;;;14.60;;
3571;SDS011;7958;53.024;12.970;2022-08-19T09:51:18;15.80;;;14.20;;
3571;SDS011;7958;53.024;12.970;2022-08-19T09:53:47;16.13;;;14.50;;
3571;SDS011;7958;53.024;12.970;2022-08-19T09:56:15;18.13;;;16.33;;
3571;SDS011;7958;53.024;12.970;2022-08-19T09:58:42;20.60;;;18.20;;
3571;SDS011;7958;53.024;12.970;2022-08-19T10:01:14;19.17;;;17.10;;
3571;SDS011;7958;53.024;12.970;2022-08-19T10:03:41;19.70;;;17.60;;
3571;SDS011;7958;53.024;12.970;2022-08-19T10:06:09;20.63;;;18.30;;
3571;SDS011;7958;53.024;12.970;2022-08-19T10:08:36;20.37;;;17.67;;
3571;SDS011;7958;53.024;12.970;2022-08-19T10:11:04;20.87;;;18.67;;
3571;SDS011;7958;53.024;12.970;2022-08-19T10:13:31;18.80;;;16.90;;
3571;SDS011;7958;53.024;12.970;2022-08-19T10:16:02;21.90;;;19.60;;
3571;SDS011;7958;53.024;12.970;2022-08-19T10:18:31;20.67;;;18.60;;
3571;SDS011;7958;53.024;12.970;2022-08-19T10:21:02;22.23;;;19.50;;
3571;SDS011;7958;53.024;12.970;2022-08-19T10:23:33;22.67;;;18.13;;
3571;SDS011;7958;53.024;12.970;2022-08-19T10:26:01;21.63;;;16.90;;
3571;SDS011;7958;53.024;12.970;2022-08-19T10:28:28;24.20;;;20.27;;
3571;SDS011;7958;53.024;12.970;2022-08-19T10:30:54;26.63;;;20.17;;
3571;SDS011;7958;53.024;12.970;2022-08-19T10:33:21;26.80;;;20.80;;
3571;SDS011;7958;53.024;12.970;2022-08-19T10:35:47;21.70;;;19.20;;
3571;SDS011;7958;53.024;12.970;2022-08-19T10:38:13;24.90;;;20.27;;
3571;SDS011;7958;53.024;12.970;2022-08-19T10:40:41;31.73;;;20.67;;
3571;SDS011;7958;53.024;12.970;2022-08-19T10:43:08;23.93;;;19.40;;
3571;SDS011;7958;53.024;12.970;2022-08-19T10:45:34;23.33;;;18.70;;
3571;SDS011;7958;53.024;12.970;2022-08-19T10:48:02;22.20;;;19.73;;
3571;SDS011;7958;53.024;12.970;2022-08-19T10:50:29;22.00;;;19.40;;
3571;SDS011;7958;53.024;12.970;2022-08-19T10:53:13;25.10;;;21.30;;
3571;SDS011;7958;53.024;12.970;2022-08-19T10:55:39;26.87;;;22.50;;
3571;SDS011;7958;53.024;12.970;2022-08-19T10:58:24;26.53;;;23.70;;
3571;SDS011;7958;53.024;12.970;2022-08-19T11:00:51;24.13;;;21.73;;
3571;SDS011;7958;53.024;12.970;2022-08-19T11:03:19;29.70;;;24.97;;
3571;SDS011;7958;53.024;12.970;2022-08-19T11:05:45;25.07;;;22.27;;
3571;SDS011;7958;53.024;12.970;2022-08-19T11:08:14;27.57;;;24.57;;
3571;SDS011;7958;53.024;12.970;2022-08-19T11:10:41;23.83;;;21.30;;
3571;SDS011;7958;53.024;12.970;2022-08-19T11:13:07;26.23;;;23.37;;
3571;SDS011;7958;53.024;12.970;2022-08-19T11:15:35;25.80;;;22.70;;
3571;SDS011;7958;53.024;12.970;2022-08-19T11:18:02;23.10;;;20.67;;
3571;SDS011;7958;53.024;12.970;2022-08-19T11:20:29;22.47;;;20.23;;
3571;SDS011;7958;53.024;12.970;2022-08-19T11:22:56;22.57;;;20.17;;
3571;SDS011;7958;53.024;12.970;2022-08-19T11:25:22;22.33;;;20.03;;
3571;SDS011;7958;53.024;12.970;2022-08-19T11:27:48;19.60;;;17.60;;
3571;SDS011;7958;53.024;12.970;2022-08-19T11:30:16;21.27;;;19.07;;
3571;SDS011;7958;53.024;12.970;2022-08-19T11:32:44;20.03;;;18.03;;
3571;SDS011;7958;53.024;12.970;2022-08-19T11:35:11;18.53;;;16.63;;
3571;SDS011;7958;53.024;12.970;2022-08-19T11:37:37;18.33;;;16.43;;
3571;SDS011;7958;53.024;12.970;2022-08-19T11:40:04;15.80;;;14.30;;
3571;SDS011;7958;53.024;12.970;2022-08-19T11:42:31;16.53;;;14.93;;
3571;SDS011;7958;53.024;12.970;2022-08-19T11:45:16;14.97;;;13.50;;
3571;SDS011;7958;53.024;12.970;2022-08-19T11:47:42;15.07;;;13.47;;
3571;SDS011;7958;53.024;12.970;2022-08-19T11:50:10;14.43;;;13.10;;
3571;SDS011;7958;53.024;12.970;2022-08-19T11:52:37;12.20;;;11.10;;
3571;SDS011;7958;53.024;12.970;2022-08-19T11:55:04;12.17;;;10.97;;
3571;SDS011;7958;53.024;12.970;2022-08-19T11:57:31;14.77;;;13.27;;
3571;SDS011;7958;53.024;12.970;2022-08-19T11:59:57;12.50;;;11.30;;
3571;SDS011;7958;53.024;12.970;2022-08-19T12:02:24;12.57;;;10.80;;
3571;SDS011;7958;53.024;12.970;2022-08-19T12:04:50;11.77;;;10.77;;
3571;SDS011;7958;53.024;12.970;2022-08-19T12:07:18;11.57;;;10.50;;
3571;SDS011;7958;53.024;12.970;2022-08-19T12:09:44;11.13;;;10.20;;
3571;SDS011;7958;53.024;12.970;2022-08-19T12:12:10;10.50;;;9.60;;
3571;SDS011;7958;53.024;12.970;2022-08-19T12:14:37;11.47;;;10.47;;
3571;SDS011;7958;53.024;12.970;2022-08-19T12:17:03;11.77;;;10.67;;
3571;SDS011;7958;53.024;12.970;2022-08-19T12:19:32;11.37;;;10.30;;
3571;SDS011;7958;53.024;12.970;2022-08-19T12:21:59;11.60;;;10.50;;
3571;SDS011;7958;53.024;12.970;2022-08-19T12:24:31;12.10;;;10.90;;
3571;SDS011;7958;53.024;12.970;2022-08-19T12:26:57;11.43;;;10.33;;
3571;SDS011;7958;53.024;12.970;2022-08-19T12:29:26;10.50;;;9.60;;
3571;SDS011;7958;53.024;12.970;2022-08-19T12:31:54;12.30;;;10.80;;
3571;SDS011;7958;53.024;12.970;2022-08-19T12:34:25;10.70;;;9.80;;
3571;SDS011;7958;53.024;12.970;2022-08-19T12:36:54;10.77;;;9.83;;
3571;SDS011;7958;53.024;12.970;2022-08-19T12:39:21;11.90;;;10.80;;
3571;SDS011;7958;53.024;12.970;2022-08-19T12:41:48;10.83;;;9.93;;
3571;SDS011;7958;53.024;12.970;2022-08-19T12:44:14;10.60;;;9.60;;
3571;SDS011;7958;53.024;12.970;2022-08-19T12:46:41;11.30;;;10.33;;
3571;SDS011;7958;53.024;12.970;2022-08-19T12:49:07;9.77;;;8.90;;
3571;SDS011;7958;53.024;12.970;2022-08-19T12:51:35;11.67;;;10.67;;
3571;SDS011;7958;53.024;12.970;2022-08-19T12:54:01;11.47;;;10.40;;
3571;SDS011;7958;53.024;12.970;2022-08-19T12:56:29;11.00;;;10.10;;
3571;SDS011;7958;53.024;12.970;2022-08-19T12:58:57;11.60;;;10.50;;
3571;SDS011;7958;53.024;12.970;2022-08-19T13:01:25;10.23;;;9.27;;
3571;SDS011;7958;53.024;12.970;2022-08-19T13:03:52;10.57;;;9.70;;
3571;SDS011;7958;53.024;12.970;2022-08-19T13:06:19;10.80;;;9.90;;
3571;SDS011;7958;53.024;12.970;2022-08-19T13:08:46;11.90;;;10.80;;
3571;SDS011;7958;53.024;12.970;2022-08-19T13:11:14;12.93;;;11.57;;
3571;SDS011;7958;53.024;12.970;2022-08-19T13:13:42;11.57;;;10.57;;
3571;SDS011;7958;53.024;12.970;2022-08-19T13:16:11;11.47;;;10.53;;
3571;SDS011;7958;53.024;12.970;2022-08-19T13:18:39;13.00;;;11.80;;
3571;SDS011;7958;53.024;12.970;2022-08-19T13:21:07;11.43;;;10.33;;
3571;SDS011;7958;53.024;12.970;2022-08-19T13:23:35;12.57;;;11.37;;
3571;SDS011;7958;53.024;12.970;2022-08-19T13:26:02;12.77;;;11.67;;
3571;SDS011;7958;53.024;12.970;2022-08-19T13:28:30;11.73;;;10.73;;
3571;SDS011;7958;53.024;12.970;2022-08-19T13:31:13;13.30;;;12.10;;
3571;SDS011;7958;53.024;12.970;2022-08-19T13:33:59;12.80;;;11.80;;
3571;SDS011;7958;53.024;12.970;2022-08-19T13:36:25;13.27;;;11.97;;
3571;SDS011;7958;53.024;12.970;2022-08-19T13:38:51;12.83;;;11.60;;
3571;SDS011;7958;53.024;12.970;2022-08-19T13:41:17;14.17;;;12.90;;
3571;SDS011;7958;53.024;12.970;2022-08-19T13:43:44;12.47;;;11.10;;
3571;SDS011;7958;53.024;12.970;2022-08-19T13:46:12;14.23;;;12.83;;
3571;SDS011;7958;53.024;12.970;2022-08-19T13:48:39;12.87;;;11.63;;
3571;SDS011;7958;53.024;12.970;2022-08-19T13:51:06;14.10;;;12.80;;
3571;SDS011;7958;53.024;12.970;2022-08-19T13:53:34;13.13;;;11.93;;
3571;SDS011;7958;53.024;12.970;2022-08-19T13:56:04;13.73;;;12.23;;
3571;SDS011;7958;53.024;12.970;2022-08-19T13:58:31;12.27;;;11.07;;
3571;SDS011;7958;53.024;12.970;2022-08-19T14:00:57;14.13;;;12.77;;
3571;SDS011;7958;53.024;12.970;2022-08-19T14:03:25;12.50;;;11.40;;
3571;SDS011;7958;53.024;12.970;2022-08-19T14:05:52;12.67;;;11.47;;
3571;SDS011;7958;53.024;12.970;2022-08-19T14:08:18;13.40;;;12.20;;
3571;SDS011;7958;53.024;12.970;2022-08-19T14:10:45;11.73;;;10.73;;
3571;SDS011;7958;53.024;12.970;2022-08-19T14:13:13;13.63;;;12.43;;
3571;SDS011;7958;53.024;12.970;2022-08-19T14:15:40;12.93;;;11.70;;
3571;SDS011;7958;53.024;12.970;2022-08-19T14:18:06;15.97;;;14.53;;
3571;SDS011;7958;53.024;12.970;2022-08-19T14:20:34;14.23;;;12.93;;
3571;SDS011;7958;53.024;12.970;2022-08-19T14:23:01;14.93;;;13.60;;
3571;SDS011;7958;53.024;12.970;2022-08-19T14:25:28;15.40;;;13.87;;
3571;SDS011;7958;53.024;12.970;2022-08-19T14:27:55;14.97;;;13.53;;
3571;SDS011;7958;53.024;12.970;2022-08-19T14:30:23;15.23;;;13.90;;
3571;SDS011;7958;53.024;12.970;2022-08-19T14:32:51;15.63;;;14.10;;
3571;SDS011;7958;53.024;12.970;2022-08-19T14:35:19;17.33;;;15.57;;
3571;SDS011;7958;53.024;12.970;2022-08-19T14:37:48;16.63;;;15.00;;
3571;SDS011;7958;53.024;12.970;2022-08-19T14:40:16;15.23;;;13.63;;